createdAt,value
2023-11-15T00:01:35.237Z,96636.50
2023-11-15T00:04:04.457Z,96653.16
2023-11-15T00:06:32.762Z,96673.28
2023-11-15T00:09:00.985Z,96696.81
2023-11-15T00:11:30.711Z,96716.91
2023-11-15T00:13:59.025Z,96668.50
2023-11-15T00:16:27.378Z,96731.44
2023-11-15T00:18:56.023Z,96731.13
2023-11-15T00:21:24.769Z,96739.41
2023-11-15T00:23:52.980Z,96749.97
2023-11-15T00:26:21.757Z,96753.44
2023-11-15T00:28:51.360Z,96766.25
2023-11-15T00:31:19.505Z,96785.63
2023-11-15T00:33:47.941Z,96801.38
2023-11-15T00:36:21.138Z,96812.19
2023-11-15T00:38:50.713Z,96628.94
2023-11-15T00:41:19.747Z,96822.84
2023-11-15T00:43:48.889Z,96833.34
2023-11-15T00:46:18.528Z,96835.09
2023-11-15T00:48:46.746Z,96821.00
2023-11-15T00:51:14.915Z,96821.69
2023-11-15T00:53:43.121Z,96819.31
2023-11-15T00:56:12.634Z,96803.84
2023-11-15T00:58:42.679Z,96749.28
2023-11-15T01:01:12.417Z,96806.28
2023-11-15T01:03:47.057Z,96815.09
2023-11-15T01:06:17.308Z,96827.16
2023-11-15T01:08:45.530Z,96815.69
2023-11-15T01:11:14.877Z,96829.19
2023-11-15T01:13:43.058Z,96821.34
2023-11-15T01:16:11.278Z,96821.16
2023-11-15T01:18:39.506Z,96813.31
2023-11-15T01:21:11.358Z,96814.78
2023-11-15T01:23:39.876Z,96815.94
2023-11-15T01:26:08.879Z,96811.56
2023-11-15T01:28:37.098Z,96786.97
2023-11-15T01:31:05.822Z,96806.66
2023-11-15T01:33:34.099Z,96808.22
2023-11-15T01:36:02.334Z,96794.38
2023-11-15T01:38:31.931Z,96787.59
2023-11-15T01:41:01.104Z,96812.81
2023-11-15T01:43:29.250Z,96815.69
2023-11-15T01:45:57.708Z,96815.00
2023-11-15T01:48:26.946Z,96816.66
2023-11-15T01:50:55.244Z,96788.25
2023-11-15T01:53:24.009Z,96809.38
2023-11-15T01:55:54.234Z,96815.44
2023-11-15T01:58:26.740Z,96817.88
2023-11-15T02:00:55.989Z,96819.41
2023-11-15T02:03:24.450Z,96803.00
2023-11-15T02:05:54.887Z,96799.00
2023-11-15T02:08:23.351Z,96830.78
2023-11-15T02:10:51.631Z,96830.78
2023-11-15T02:13:26.586Z,96819.84
2023-11-15T02:15:58.042Z,96824.28
2023-11-15T02:18:26.969Z,96827.66
2023-11-15T02:20:55.354Z,96815.06
2023-11-15T02:23:25.140Z,96827.53
2023-11-15T02:25:54.790Z,96834.06
2023-11-15T02:28:23.039Z,96840.09
2023-11-15T02:30:51.496Z,96768.84
2023-11-15T02:33:20.167Z,96767.97
2023-11-15T02:35:49.081Z,96841.31
2023-11-15T02:38:17.705Z,96829.75
2023-11-15T02:40:46.828Z,96829.22
2023-11-15T02:43:16.542Z,96840.66
2023-11-15T02:45:44.808Z,96840.16
2023-11-15T02:48:13.324Z,96833.78
2023-11-15T02:50:41.599Z,96835.84
2023-11-15T02:53:09.867Z,96843.97
2023-11-15T02:55:38.049Z,96832.19
2023-11-15T02:58:06.184Z,96850.66
2023-11-15T03:00:36.310Z,96847.69
2023-11-15T03:03:05.547Z,96844.88
2023-11-15T03:05:34.142Z,96860.69
2023-11-15T03:08:02.355Z,96861.56
2023-11-15T03:10:30.581Z,96852.22
2023-11-15T03:12:58.765Z,96825.84
2023-11-15T03:15:27.099Z,96849.94
2023-11-15T03:17:57.106Z,96849.94
2023-11-15T03:20:26.461Z,96846.56
2023-11-15T03:22:55.039Z,96831.25
2023-11-15T03:25:23.840Z,96849.31
2023-11-15T03:27:52.194Z,96827.97
2023-11-15T03:30:20.870Z,96831.31
2023-11-15T03:32:49.268Z,96832.22
2023-11-15T03:35:21.751Z,96846.09
2023-11-15T03:37:49.932Z,96840.88
2023-11-15T03:40:20.918Z,96837.47
2023-11-15T03:42:49.344Z,96821.59
2023-11-15T03:45:17.525Z,96851.63
2023-11-15T03:47:45.747Z,96867.41
2023-11-15T03:50:14.093Z,96864.19
2023-11-15T03:52:43.910Z,96861.88
2023-11-15T03:55:12.171Z,96873.03
2023-11-15T03:57:40.329Z,96875.66
2023-11-15T04:00:11.949Z,96876.59
2023-11-15T04:02:40.479Z,96881.75
2023-11-15T04:05:10.592Z,96880.00
2023-11-15T04:07:40.177Z,96869.63
2023-11-15T04:10:11.315Z,96864.59
2023-11-15T04:12:39.765Z,96869.88
2023-11-15T04:15:10.701Z,96842.59
2023-11-15T04:17:39.242Z,96873.88
2023-11-15T04:20:10.201Z,96876.50
2023-11-15T04:22:38.408Z,96874.22
2023-11-15T04:25:07.474Z,96884.81
2023-11-15T04:27:37.894Z,96790.63
2023-11-15T04:30:07.134Z,96848.22
2023-11-15T04:32:35.317Z,96866.34
2023-11-15T04:35:04.383Z,96866.34
2023-11-15T04:37:32.558Z,96873.38
2023-11-15T04:40:00.729Z,96895.13
2023-11-15T04:42:29.042Z,96866.78
2023-11-15T04:44:58.667Z,96903.00
2023-11-15T04:47:27.179Z,96893.53
2023-11-15T04:49:55.348Z,96901.53
2023-11-15T04:52:24.141Z,96908.47
2023-11-15T04:54:52.327Z,96911.63
2023-11-15T04:57:24.684Z,96888.53
2023-11-15T04:59:53.768Z,96905.72
2023-11-15T05:02:23.576Z,96896.63
2023-11-15T05:04:53.462Z,96920.91
2023-11-15T05:07:23.947Z,96904.06
2023-11-15T05:09:52.184Z,96926.31
2023-11-15T05:12:20.381Z,96928.03
2023-11-15T05:14:48.612Z,96925.59
2023-11-15T05:17:17.191Z,96931.69
2023-11-15T05:19:46.784Z,96935.94
2023-11-15T05:22:15.061Z,96932.66
2023-11-15T05:24:43.994Z,96955.81
2023-11-15T05:27:12.257Z,96941.22
2023-11-15T05:29:40.491Z,96954.09
2023-11-15T05:32:10.463Z,96952.28
2023-11-15T05:34:38.647Z,96962.53
2023-11-15T05:37:08.336Z,96967.81
2023-11-15T05:39:36.518Z,96961.75
2023-11-15T05:42:05.590Z,96957.50
2023-11-15T05:44:33.754Z,96956.81
2023-11-15T05:47:02.362Z,96945.56
2023-11-15T05:49:32.204Z,96899.34
2023-11-15T05:52:00.638Z,96941.84
2023-11-15T05:54:31.324Z,96945.00
2023-11-15T05:57:00.031Z,96944.06
2023-11-15T05:59:28.921Z,96954.75
2023-11-15T06:01:57.191Z,96950.38
2023-11-15T06:04:25.573Z,96967.56
2023-11-15T06:06:54.000Z,96949.59
2023-11-15T06:09:22.605Z,96960.69
2023-11-15T06:11:52.536Z,96961.88
2023-11-15T06:14:20.950Z,96996.06
2023-11-15T06:16:49.175Z,96992.59
2023-11-15T06:19:18.049Z,96994.50
2023-11-15T06:21:46.682Z,96995.06
2023-11-15T06:24:15.353Z,96989.41
2023-11-15T06:26:45.711Z,96996.63
2023-11-15T06:29:15.397Z,96998.91
2023-11-15T06:31:44.051Z,97016.72
2023-11-15T06:34:12.709Z,97015.72
2023-11-15T06:36:43.430Z,97003.66
2023-11-15T06:39:13.624Z,97028.78
2023-11-15T06:41:42.808Z,97034.19
2023-11-15T06:44:11.773Z,97041.53
2023-11-15T06:46:41.532Z,97048.25
2023-11-15T06:49:12.198Z,96995.66
2023-11-15T06:51:40.990Z,97074.66
2023-11-15T06:54:09.392Z,97081.41
2023-11-15T06:56:37.620Z,97063.19
2023-11-15T06:59:06.157Z,97076.53
2023-11-15T07:01:34.349Z,97075.41
2023-11-15T07:04:04.257Z,97079.34
2023-11-15T07:06:33.705Z,97084.13
2023-11-15T07:09:03.681Z,97092.47
2023-11-15T07:11:32.975Z,97086.38
2023-11-15T07:14:02.172Z,97082.19
2023-11-15T07:16:30.873Z,97074.31
2023-11-15T07:18:59.057Z,97077.19
2023-11-15T07:21:28.826Z,97067.47
2023-11-15T07:23:59.702Z,97078.00
2023-11-15T07:26:29.113Z,97067.03
2023-11-15T07:28:58.154Z,97065.47
2023-11-15T07:31:26.401Z,97063.28
2023-11-15T07:33:54.639Z,97026.66
2023-11-15T07:36:22.858Z,97054.50
2023-11-15T07:38:52.493Z,96996.09
2023-11-15T07:41:20.732Z,97044.72
2023-11-15T07:43:48.969Z,97042.59
2023-11-15T07:46:17.134Z,96984.69
2023-11-15T07:48:45.396Z,97012.59
2023-11-15T07:51:14.022Z,97007.84
2023-11-15T07:53:43.383Z,97005.34
2023-11-15T07:56:13.111Z,96995.28
2023-11-15T07:58:41.260Z,96985.59
2023-11-15T08:01:11.063Z,96994.13
2023-11-15T08:03:40.315Z,96996.75
2023-11-15T08:06:09.635Z,97003.56
2023-11-15T08:08:38.130Z,97002.41
2023-11-15T08:11:06.902Z,97025.44
2023-11-15T08:13:36.508Z,97029.56
2023-11-15T08:16:05.060Z,97030.84
2023-11-15T08:18:33.331Z,97033.84
2023-11-15T08:21:04.175Z,97023.31
2023-11-15T08:23:32.410Z,97025.44
2023-11-15T08:26:03.812Z,97021.72
2023-11-15T08:28:32.347Z,97020.47
2023-11-15T08:31:02.125Z,97026.06
2023-11-15T08:33:30.949Z,97015.97
2023-11-15T08:35:59.233Z,97028.06
2023-11-15T08:38:27.434Z,97029.53
2023-11-15T08:40:57.014Z,97035.50
2023-11-15T08:43:25.314Z,97030.22
2023-11-15T08:45:53.625Z,97000.50
2023-11-15T08:48:24.498Z,97033.91
2023-11-15T08:50:53.066Z,97042.63
2023-11-15T08:53:26.438Z,97044.16
2023-11-15T08:55:55.024Z,97037.03
2023-11-15T08:58:28.641Z,97039.16
2023-11-15T09:01:02.556Z,97049.63
2023-11-15T09:03:33.429Z,97063.03
2023-11-15T09:06:02.431Z,97058.72
2023-11-15T09:08:32.655Z,97066.38
2023-11-15T09:11:01.070Z,97035.75
2023-11-15T09:13:29.767Z,97056.97
2023-11-15T09:16:00.423Z,97039.78
2023-11-15T09:18:29.138Z,97061.94
2023-11-15T09:20:59.610Z,97060.59
2023-11-15T09:23:31.156Z,97041.25
2023-11-15T09:26:01.285Z,97032.41
2023-11-15T09:28:29.667Z,97036.50
2023-11-15T09:30:57.882Z,97044.59
2023-11-15T09:33:27.543Z,97019.97
2023-11-15T09:36:01.369Z,97014.63
2023-11-15T09:38:30.474Z,96930.34
2023-11-15T09:41:01.727Z,97055.91
2023-11-15T09:43:30.327Z,97054.44
2023-11-15T09:46:00.186Z,97065.53
2023-11-15T09:48:28.929Z,97071.81
2023-11-15T09:51:01.353Z,96996.13
2023-11-15T09:53:33.277Z,97044.66
2023-11-15T09:56:05.624Z,97063.66
2023-11-15T09:58:34.176Z,97052.06
2023-11-15T10:01:04.126Z,97059.31
2023-11-15T10:03:32.626Z,97090.16
2023-11-15T10:06:05.087Z,97089.03
2023-11-15T10:08:33.558Z,97089.63
2023-11-15T10:11:10.368Z,97090.31
2023-11-15T10:13:39.433Z,97070.53
2023-11-15T10:16:24.538Z,97094.47
2023-11-15T10:18:54.411Z,97089.69
2023-11-15T10:21:24.191Z,97082.06
2023-11-15T10:24:11.656Z,97085.44
2023-11-15T10:26:40.195Z,97089.63
2023-11-15T10:29:14.114Z,97083.22
2023-11-15T10:31:54.300Z,97099.53
2023-11-15T10:34:31.072Z,97098.81
2023-11-15T10:37:08.624Z,97095.66
2023-11-15T10:39:42.135Z,97101.53
2023-11-15T10:42:14.337Z,97092.59
2023-11-15T10:44:48.830Z,97072.19
2023-11-15T10:47:21.324Z,97082.31
2023-11-15T10:49:55.846Z,97095.72
2023-11-15T10:52:26.525Z,97087.38
2023-11-15T10:54:58.711Z,97086.25
2023-11-15T10:57:29.113Z,97099.13
2023-11-15T10:59:58.803Z,97112.34
2023-11-15T11:02:30.896Z,97082.00
2023-11-15T11:05:00.839Z,97098.66
2023-11-15T11:07:41.638Z,97108.28
2023-11-15T11:10:22.421Z,97100.31
2023-11-15T11:12:50.697Z,97105.16
2023-11-15T11:15:31.420Z,97088.75
2023-11-15T11:18:07.418Z,97097.53
2023-11-15T11:20:38.898Z,97048.28
2023-11-15T11:23:12.071Z,97111.13
2023-11-15T11:25:41.232Z,97122.34
2023-11-15T11:28:12.567Z,97123.72
2023-11-15T11:30:41.925Z,97133.94
2023-11-15T11:33:12.563Z,97133.06
2023-11-15T11:35:42.334Z,97116.44
2023-11-15T11:38:19.142Z,97127.78
2023-11-15T11:40:48.924Z,97117.84
2023-11-15T11:43:18.204Z,97125.34
2023-11-15T11:45:48.012Z,97115.88
2023-11-15T11:48:20.973Z,97140.22
2023-11-15T11:51:00.856Z,97134.59
2023-11-15T11:53:30.517Z,97125.44
2023-11-15T11:55:58.825Z,97140.88
2023-11-15T11:58:29.342Z,97159.72
2023-11-15T12:01:02.637Z,97139.72
2023-11-15T12:03:32.775Z,97175.59
2023-11-15T12:06:08.717Z,97185.72
2023-11-15T12:08:40.296Z,97170.91
2023-11-15T12:11:09.578Z,97176.94
2023-11-15T12:13:49.212Z,97163.81
2023-11-15T12:16:19.156Z,97163.69
2023-11-15T12:19:07.394Z,97172.00
2023-11-15T12:21:38.595Z,97177.31
2023-11-15T12:24:11.400Z,97169.56
2023-11-15T12:26:47.608Z,97182.97
2023-11-15T12:29:21.630Z,97185.91
2023-11-15T12:31:54.647Z,97173.16
2023-11-15T12:34:23.836Z,97186.75
2023-11-15T12:36:53.114Z,97180.25
2023-11-15T12:39:24.211Z,97190.91
2023-11-15T12:41:58.487Z,97189.97
2023-11-15T12:44:26.795Z,97163.84
2023-11-15T12:46:59.556Z,97189.38
2023-11-15T12:49:29.000Z,97194.50
2023-11-15T12:51:57.294Z,97192.22
2023-11-15T12:54:26.982Z,97193.09
2023-11-15T12:57:05.814Z,97204.72
2023-11-15T12:59:39.116Z,97199.38
2023-11-15T13:02:07.951Z,97206.97
2023-11-15T13:04:50.974Z,97208.34
2023-11-15T13:07:19.440Z,97200.00
2023-11-15T13:09:49.638Z,97226.31
2023-11-15T13:12:25.641Z,97213.53
2023-11-15T13:14:54.788Z,97221.00
2023-11-15T13:17:23.148Z,97218.94
2023-11-15T13:19:51.427Z,97221.31
2023-11-15T13:22:19.936Z,97223.59
2023-11-15T13:24:51.229Z,97216.19
2023-11-15T13:27:21.878Z,97212.78
2023-11-15T13:29:51.968Z,97226.97
2023-11-15T13:32:20.668Z,97214.59
2023-11-15T13:34:52.018Z,97206.34
2023-11-15T13:37:20.757Z,97197.63
2023-11-15T13:39:50.304Z,97214.41
2023-11-15T13:42:18.695Z,97192.63
2023-11-15T13:44:48.673Z,97228.03
2023-11-15T13:47:17.203Z,97226.66
2023-11-15T13:49:48.917Z,97245.97
2023-11-15T13:52:17.851Z,97242.00
2023-11-15T13:54:47.074Z,97244.72
2023-11-15T13:57:18.923Z,97253.38
2023-11-15T13:59:47.360Z,97242.47
2023-11-15T14:02:15.732Z,97271.47
2023-11-15T14:04:44.073Z,97285.56
2023-11-15T14:07:12.675Z,97259.66
2023-11-15T14:09:41.405Z,97293.06
2023-11-15T14:12:10.323Z,97295.81
2023-11-15T14:14:40.986Z,97306.97
2023-11-15T14:17:11.444Z,97308.03
2023-11-15T14:19:41.247Z,97309.50
2023-11-15T14:22:09.494Z,97312.00
2023-11-15T14:24:37.908Z,97315.88
2023-11-15T14:27:06.744Z,97329.34
2023-11-15T14:29:35.490Z,97335.69
2023-11-15T14:32:08.831Z,97327.09
2023-11-15T14:34:37.147Z,97331.41
2023-11-15T14:37:05.818Z,97327.22
2023-11-15T14:39:34.149Z,97350.25
2023-11-15T14:42:08.315Z,97331.94
2023-11-15T14:44:36.856Z,97351.53
2023-11-15T14:47:09.951Z,97360.78
2023-11-15T14:49:38.871Z,97358.59
2023-11-15T14:52:12.106Z,97341.03
2023-11-15T14:54:47.076Z,97359.53
2023-11-15T14:57:16.136Z,97366.88
2023-11-15T14:59:46.309Z,97368.06
2023-11-15T15:02:18.695Z,97373.66
2023-11-15T15:04:49.297Z,97369.06
2023-11-15T15:07:20.054Z,97351.38
2023-11-15T15:09:48.456Z,97354.53
2023-11-15T15:12:16.739Z,97385.59
2023-11-15T15:14:45.086Z,97383.81
2023-11-15T15:17:23.290Z,97390.06
2023-11-15T15:19:55.761Z,97391.91
2023-11-15T15:22:27.651Z,97391.19
2023-11-15T15:24:56.173Z,97390.59
2023-11-15T15:27:28.263Z,97247.59
2023-11-15T15:29:59.396Z,97403.31
2023-11-15T15:32:28.372Z,97347.81
2023-11-15T15:34:59.471Z,97415.72
2023-11-15T15:37:27.828Z,97417.75
2023-11-15T15:39:56.077Z,97408.81
2023-11-15T15:42:25.493Z,97431.13
2023-11-15T15:44:53.891Z,97433.28
2023-11-15T15:47:23.071Z,97439.75
2023-11-15T15:49:52.866Z,97400.84
2023-11-15T15:52:23.643Z,97408.16
2023-11-15T15:54:51.835Z,97457.94
2023-11-15T15:57:20.355Z,97461.13
2023-11-15T15:59:48.737Z,97460.59
2023-11-15T16:02:17.067Z,97441.63
2023-11-15T16:04:45.341Z,97456.97
2023-11-15T16:07:13.684Z,97475.47
2023-11-15T16:09:43.693Z,97479.84
2023-11-15T16:12:12.115Z,97479.28
2023-11-15T16:14:40.490Z,97495.84
2023-11-15T16:17:09.282Z,97487.47
2023-11-15T16:19:37.487Z,97505.00
2023-11-15T16:22:06.002Z,97499.69
2023-11-15T16:24:34.214Z,97504.66
2023-11-15T16:27:05.021Z,97491.38
2023-11-15T16:29:34.516Z,97524.59
2023-11-15T16:32:03.068Z,97506.97
2023-11-15T16:34:31.552Z,97469.94
2023-11-15T16:37:00.012Z,97531.50
2023-11-15T16:39:28.662Z,97531.53
2023-11-15T16:41:57.052Z,97464.84
2023-11-15T16:44:29.708Z,97530.03
2023-11-15T16:46:58.172Z,97543.78
2023-11-15T16:49:26.431Z,97545.69
2023-11-15T16:51:55.289Z,97523.31
2023-11-15T16:54:23.772Z,97519.47
2023-11-15T16:56:52.187Z,97549.50
2023-11-15T16:59:20.550Z,97552.97
2023-11-15T17:01:50.345Z,97561.72
2023-11-15T17:04:18.749Z,97527.91
2023-11-15T17:06:47.026Z,97581.06
2023-11-15T17:09:15.708Z,97582.06
2023-11-15T17:11:44.502Z,97592.41
2023-11-15T17:14:14.257Z,97585.63
2023-11-15T17:16:42.648Z,97580.75
2023-11-15T17:19:12.383Z,97578.06
2023-11-15T17:21:42.763Z,97549.75
2023-11-15T17:24:12.209Z,97619.78
2023-11-15T17:26:42.122Z,97602.03
2023-11-15T17:29:11.218Z,97601.13
2023-11-15T17:31:39.710Z,97616.81
2023-11-15T17:34:09.725Z,97627.31
2023-11-15T17:36:39.762Z,97581.22
2023-11-15T17:39:08.688Z,97629.41
2023-11-15T17:41:37.020Z,97629.56
2023-11-15T17:44:08.952Z,97641.78
2023-11-15T17:46:39.642Z,97585.09
2023-11-15T17:49:08.480Z,97648.75
2023-11-15T17:51:36.758Z,97651.41
2023-11-15T17:54:08.455Z,97653.97
2023-11-15T17:56:36.962Z,97618.34
2023-11-15T17:59:05.887Z,97669.22
2023-11-15T18:01:34.925Z,97669.97
2023-11-15T18:04:03.417Z,97662.16
2023-11-15T18:06:33.163Z,97675.31
2023-11-15T18:09:01.806Z,97680.78
2023-11-15T18:11:31.493Z,97680.94
2023-11-15T18:14:01.308Z,97671.69
2023-11-15T18:16:31.321Z,97665.00
2023-11-15T18:19:06.260Z,97676.13
2023-11-15T18:21:34.760Z,97684.97
2023-11-15T18:24:03.239Z,97678.13
2023-11-15T18:26:33.140Z,97680.88
2023-11-15T18:29:02.235Z,97691.53
2023-11-15T18:31:30.610Z,97662.22
2023-11-15T18:33:59.577Z,97681.19
2023-11-15T18:36:30.283Z,97686.63
2023-11-15T18:38:59.135Z,97653.19
2023-11-15T18:41:27.452Z,97680.66
2023-11-15T18:43:58.473Z,97693.00
2023-11-15T18:46:27.762Z,97671.41
2023-11-15T18:48:56.157Z,97692.09
2023-11-15T18:51:28.954Z,97683.00
2023-11-15T18:53:57.427Z,97693.03
2023-11-15T18:56:27.502Z,97614.88
2023-11-15T18:58:59.310Z,97697.72
2023-11-15T19:01:27.732Z,97694.25
2023-11-15T19:03:58.002Z,97700.44
2023-11-15T19:06:37.543Z,97704.81
2023-11-15T19:09:23.147Z,97697.84
2023-11-15T19:11:56.637Z,97707.47
2023-11-15T19:14:29.822Z,97716.13
2023-11-15T19:17:01.216Z,97710.94
2023-11-15T19:19:29.855Z,97702.31
2023-11-15T19:21:58.322Z,97692.03
2023-11-15T19:24:26.761Z,97724.06
2023-11-15T19:26:55.627Z,97733.63
2023-11-15T19:29:24.014Z,97728.38
2023-11-15T19:31:53.880Z,97734.72
2023-11-15T19:34:24.424Z,97757.22
2023-11-15T19:36:53.794Z,97756.34
2023-11-15T19:39:23.716Z,97749.44
2023-11-15T19:41:52.013Z,97757.28
2023-11-15T19:44:20.215Z,97759.88
2023-11-15T19:46:49.080Z,97757.22
2023-11-15T19:49:20.890Z,97767.66
2023-11-15T19:51:52.692Z,97765.22
2023-11-15T19:54:22.144Z,97767.91
2023-11-15T19:56:51.240Z,97768.84
2023-11-15T19:59:19.488Z,97773.22
2023-11-15T20:01:48.559Z,97758.38
2023-11-15T20:04:19.155Z,97761.81
2023-11-15T20:06:48.506Z,97759.25
2023-11-15T20:09:17.069Z,97755.88
2023-11-15T20:11:47.587Z,97767.28
2023-11-15T20:14:16.158Z,97752.63
2023-11-15T20:16:44.559Z,97762.06
2023-11-15T20:19:14.369Z,97745.66
2023-11-15T20:21:44.054Z,97755.22
2023-11-15T20:24:12.841Z,97740.22
2023-11-15T20:26:41.842Z,97738.28
2023-11-15T20:29:11.501Z,97762.31
2023-11-15T20:31:40.558Z,97753.03
2023-11-15T20:34:10.009Z,97765.31
2023-11-15T20:36:38.689Z,97758.59
2023-11-15T20:39:21.639Z,97756.94
2023-11-15T20:41:53.319Z,97766.78
2023-11-15T20:44:21.801Z,97763.34
2023-11-15T20:46:50.109Z,97753.03
2023-11-15T20:49:18.573Z,97760.94
2023-11-15T20:51:49.292Z,97686.75
2023-11-15T20:54:22.151Z,97758.31
2023-11-15T20:56:50.380Z,97751.34
2023-11-15T20:59:18.864Z,97724.66
2023-11-15T21:01:48.131Z,97746.00
2023-11-15T21:04:21.388Z,97738.25
2023-11-15T21:06:52.081Z,97692.56
2023-11-15T21:09:24.991Z,97759.00
2023-11-15T21:11:54.858Z,97746.84
2023-11-15T21:14:23.195Z,97740.69
2023-11-15T21:16:51.483Z,97737.34
2023-11-15T21:19:20.257Z,97746.13
2023-11-15T21:21:48.456Z,97738.34
2023-11-15T21:24:16.893Z,97748.84
2023-11-15T21:26:47.927Z,97745.38
2023-11-15T21:29:16.285Z,97750.59
2023-11-15T21:31:44.641Z,97750.69
2023-11-15T21:34:13.157Z,97762.03
2023-11-15T21:36:41.454Z,97769.13
2023-11-15T21:39:10.930Z,97757.84
2023-11-15T21:41:39.431Z,97762.25
2023-11-15T21:44:09.367Z,97758.84
2023-11-15T21:46:38.423Z,97752.84
2023-11-15T21:49:07.243Z,97762.44
2023-11-15T21:51:35.605Z,97761.44
2023-11-15T21:54:05.052Z,97764.94
2023-11-15T21:56:33.300Z,97772.84
2023-11-15T21:59:01.879Z,97779.66
2023-11-15T22:01:31.593Z,97737.72
2023-11-15T22:03:59.992Z,97761.47
2023-11-15T22:06:28.247Z,97774.00
2023-11-15T22:08:56.414Z,97764.28
2023-11-15T22:11:24.782Z,97775.38
2023-11-15T22:13:52.980Z,97790.00
2023-11-15T22:16:21.182Z,97793.22
2023-11-15T22:18:50.824Z,97711.00
2023-11-15T22:21:19.146Z,97795.19
2023-11-15T22:23:47.334Z,97808.16
2023-11-15T22:26:16.383Z,97805.44
2023-11-15T22:28:44.585Z,97814.09
2023-11-15T22:31:13.777Z,97814.13
2023-11-15T22:33:42.201Z,97809.13
2023-11-15T22:36:12.572Z,97812.44
2023-11-15T22:38:41.044Z,97825.44
2023-11-15T22:41:09.318Z,97800.59
2023-11-15T22:43:37.470Z,97768.03
2023-11-15T22:46:06.796Z,97817.19
2023-11-15T22:48:35.056Z,97817.19
2023-11-15T22:51:03.372Z,97816.44
2023-11-15T22:53:33.063Z,97807.28
2023-11-15T22:56:01.245Z,97828.38
2023-11-15T22:58:30.536Z,97819.16
2023-11-15T23:00:58.826Z,97830.59
2023-11-15T23:03:27.305Z,97836.06
2023-11-15T23:05:58.257Z,97829.44
2023-11-15T23:08:27.321Z,97843.59
2023-11-15T23:10:57.299Z,97860.09
2023-11-15T23:13:25.601Z,97839.38
2023-11-15T23:15:53.874Z,97843.88
2023-11-15T23:18:22.550Z,97841.41
2023-11-15T23:20:51.251Z,97845.84
2023-11-15T23:23:19.784Z,97831.16
2023-11-15T23:25:51.397Z,97806.03
2023-11-15T23:28:23.010Z,97832.88
2023-11-15T23:30:55.434Z,97826.03
2023-11-15T23:33:24.093Z,97832.16
2023-11-15T23:35:52.992Z,97827.03
2023-11-15T23:38:21.518Z,97831.38
2023-11-15T23:40:49.860Z,97814.22
2023-11-15T23:43:18.411Z,97801.25
2023-11-15T23:45:55.787Z,97790.00
2023-11-15T23:48:24.677Z,97814.97
2023-11-15T23:50:54.545Z,97815.00
2023-11-15T23:53:22.959Z,97813.16
2023-11-15T23:55:51.440Z,97818.41
2023-11-15T23:58:20.790Z,97808.97
